sensor_id;sensor_type;location;lat;lon;timestamp;pressure;altitude;pressure_sealevel;temperature;humidity
77431;BME280;66498;48.564;19.272;2024-03-02T00:02:12;96940.63;;;8.38;100.00
77431;BME280;66498;48.564;19.272;2024-03-02T00:04:38;96933.66;;;8.50;100.00
77431;BME280;66498;48.564;19.272;2024-03-02T00:07:04;96940.47;;;8.51;100.00
77431;BME280;66498;48.564;19.272;2024-03-02T00:09:29;96938.72;;;8.45;100.00
77431;BME280;66498;48.564;19.272;2024-03-02T00:11:55;96929.44;;;8.31;100.00
77431;BME280;66498;48.564;19.272;2024-03-02T00:14:21;96934.00;;;8.05;100.00
77431;BME280;66498;48.564;19.272;2024-03-02T00:16:46;96926.34;;;8.04;100.00
77431;BME280;66498;48.564;19.272;2024-03-02T00:19:12;96934.63;;;8.01;100.00
77431;BME280;66498;48.564;19.272;2024-03-02T00:21:37;96928.91;;;7.92;100.00
77431;BME280;66498;48.564;19.272;2024-03-02T00:24:17;96925.44;;;7.98;100.00
77431;BME280;66498;48.564;19.272;2024-03-02T00:26:45;96929.75;;;8.04;100.00
77431;BME280;66498;48.564;19.272;2024-03-02T00:29:13;96919.47;;;7.91;100.00
77431;BME280;66498;48.564;19.272;2024-03-02T00:31:41;96921.56;;;8.01;100.00
77431;BME280;66498;48.564;19.272;2024-03-02T00:34:06;96920.06;;;7.93;100.00
77431;BME280;66498;48.564;19.272;2024-03-02T00:36:32;96929.03;;;7.97;100.00
77431;BME280;66498;48.564;19.272;2024-03-02T00:38:58;96930.66;;;7.80;100.00
77431;BME280;66498;48.564;19.272;2024-03-02T00:41:24;96934.50;;;7.77;100.00
77431;BME280;66498;48.564;19.272;2024-03-02T00:46:22;96928.06;;;7.62;100.00
77431;BME280;66498;48.564;19.272;2024-03-02T00:48:56;96927.69;;;7.76;100.00
77431;BME280;66498;48.564;19.272;2024-03-02T00:51:24;96930.03;;;7.85;100.00
77431;BME280;66498;48.564;19.272;2024-03-02T00:53:51;96928.03;;;7.80;100.00
77431;BME280;66498;48.564;19.272;2024-03-02T00:56:18;96935.03;;;7.86;100.00
77431;BME280;66498;48.564;19.272;2024-03-02T00:58:44;96924.91;;;7.90;100.00
77431;BME280;66498;48.564;19.272;2024-03-02T01:01:09;96924.91;;;7.90;100.00
77431;BME280;66498;48.564;19.272;2024-03-02T01:03:35;96914.25;;;7.91;100.00
77431;BME280;66498;48.564;19.272;2024-03-02T01:06:00;96912.81;;;7.95;100.00
77431;BME280;66498;48.564;19.272;2024-03-02T01:08:27;96918.31;;;8.05;100.00
77431;BME280;66498;48.564;19.272;2024-03-02T01:10:52;96923.69;;;7.92;100.00
77431;BME280;66498;48.564;19.272;2024-03-02T01:13:18;96908.25;;;8.21;100.00
77431;BME280;66498;48.564;19.272;2024-03-02T01:15:43;96910.25;;;8.07;100.00
77431;BME280;66498;48.564;19.272;2024-03-02T01:18:09;96899.31;;;7.98;100.00
77431;BME280;66498;48.564;19.272;2024-03-02T01:20:34;96902.13;;;7.97;100.00
77431;BME280;66498;48.564;19.272;2024-03-02T01:23:00;96908.59;;;7.76;100.00
77431;BME280;66498;48.564;19.272;2024-03-02T01:25:25;96906.41;;;7.73;100.00
77431;BME280;66498;48.564;19.272;2024-03-02T01:27:50;96907.88;;;7.69;100.00
77431;BME280;66498;48.564;19.272;2024-03-02T01:30:16;96904.75;;;7.60;100.00
77431;BME280;66498;48.564;19.272;2024-03-02T01:32:41;96909.78;;;7.62;100.00
77431;BME280;66498;48.564;19.272;2024-03-02T01:35:07;96902.34;;;7.77;100.00
77431;BME280;66498;48.564;19.272;2024-03-02T01:37:33;96895.31;;;7.77;100.00
77431;BME280;66498;48.564;19.272;2024-03-02T01:39:58;96895.66;;;7.81;100.00
77431;BME280;66498;48.564;19.272;2024-03-02T01:42:25;96900.47;;;7.84;100.00
77431;BME280;66498;48.564;19.272;2024-03-02T01:44:51;96898.78;;;7.90;100.00
77431;BME280;66498;48.564;19.272;2024-03-02T01:47:17;96897.34;;;7.94;100.00
77431;BME280;66498;48.564;19.272;2024-03-02T01:49:42;96909.25;;;7.71;100.00
77431;BME280;66498;48.564;19.272;2024-03-02T01:52:07;96891.47;;;7.80;100.00
77431;BME280;66498;48.564;19.272;2024-03-02T01:54:33;96891.47;;;7.80;100.00
77431;BME280;66498;48.564;19.272;2024-03-02T01:56:59;96893.94;;;7.75;100.00
77431;BME280;66498;48.564;19.272;2024-03-02T01:59:25;96885.69;;;7.78;100.00
77431;BME280;66498;48.564;19.272;2024-03-02T02:01:50;96886.66;;;7.77;100.00
77431;BME280;66498;48.564;19.272;2024-03-02T02:04:16;96885.13;;;7.88;100.00
77431;BME280;66498;48.564;19.272;2024-03-02T02:06:44;96887.81;;;7.81;100.00
77431;BME280;66498;48.564;19.272;2024-03-02T02:09:10;96882.31;;;7.71;100.00
77431;BME280;66498;48.564;19.272;2024-03-02T02:11:35;96883.94;;;7.72;100.00
77431;BME280;66498;48.564;19.272;2024-03-02T02:14:01;96878.97;;;7.64;100.00
77431;BME280;66498;48.564;19.272;2024-03-02T02:16:26;96879.50;;;7.35;100.00
77431;BME280;66498;48.564;19.272;2024-03-02T02:18:52;96884.28;;;7.39;100.00
77431;BME280;66498;48.564;19.272;2024-03-02T02:21:17;96882.81;;;7.43;100.00
77431;BME280;66498;48.564;19.272;2024-03-02T02:23:42;96888.84;;;7.43;100.00
77431;BME280;66498;48.564;19.272;2024-03-02T02:26:11;96891.69;;;7.42;100.00
77431;BME280;66498;48.564;19.272;2024-03-02T02:28:37;96890.72;;;7.36;100.00
77431;BME280;66498;48.564;19.272;2024-03-02T02:31:02;96891.75;;;7.35;100.00
77431;BME280;66498;48.564;19.272;2024-03-02T02:33:28;96890.03;;;7.47;100.00
77431;BME280;66498;48.564;19.272;2024-03-02T02:35:54;96887.31;;;7.54;100.00
77431;BME280;66498;48.564;19.272;2024-03-02T02:38:19;96889.06;;;7.60;100.00
77431;BME280;66498;48.564;19.272;2024-03-02T02:40:45;96881.97;;;7.49;100.00
77431;BME280;66498;48.564;19.272;2024-03-02T02:43:10;96877.75;;;7.66;100.00
77431;BME280;66498;48.564;19.272;2024-03-02T02:45:36;96872.69;;;7.71;100.00
77431;BME280;66498;48.564;19.272;2024-03-02T02:48:01;96870.72;;;7.67;100.00
77431;BME280;66498;48.564;19.272;2024-03-02T02:50:28;96866.94;;;7.63;100.00
77431;BME280;66498;48.564;19.272;2024-03-02T02:52:53;96858.25;;;7.69;100.00
77431;BME280;66498;48.564;19.272;2024-03-02T02:55:19;96856.22;;;7.52;100.00
77431;BME280;66498;48.564;19.272;2024-03-02T02:57:44;96861.44;;;7.52;100.00
77431;BME280;66498;48.564;19.272;2024-03-02T03:00:12;96861.22;;;7.54;100.00
77431;BME280;66498;48.564;19.272;2024-03-02T03:02:44;96866.78;;;7.21;100.00
77431;BME280;66498;48.564;19.272;2024-03-02T03:05:10;96863.38;;;7.20;100.00
77431;BME280;66498;48.564;19.272;2024-03-02T03:07:36;96866.59;;;7.41;100.00
77431;BME280;66498;48.564;19.272;2024-03-02T03:10:03;96874.63;;;7.39;100.00
77431;BME280;66498;48.564;19.272;2024-03-02T03:12:30;96865.78;;;7.40;100.00
77431;BME280;66498;48.564;19.272;2024-03-02T03:14:56;96872.81;;;7.40;100.00
77431;BME280;66498;48.564;19.272;2024-03-02T03:17:22;96876.28;;;7.33;100.00
77431;BME280;66498;48.564;19.272;2024-03-02T03:19:48;96870.28;;;7.33;100.00
77431;BME280;66498;48.564;19.272;2024-03-02T03:22:15;96878.47;;;7.37;100.00
77431;BME280;66498;48.564;19.272;2024-03-02T03:24:40;96880.94;;;7.31;100.00
77431;BME280;66498;48.564;19.272;2024-03-02T03:27:06;96875.63;;;7.20;100.00
77431;BME280;66498;48.564;19.272;2024-03-02T03:29:31;96876.69;;;7.12;100.00
77431;BME280;66498;48.564;19.272;2024-03-02T03:31:57;96874.69;;;7.14;100.00
77431;BME280;66498;48.564;19.272;2024-03-02T03:34:22;96869.19;;;7.22;100.00
77431;BME280;66498;48.564;19.272;2024-03-02T03:36:49;96869.25;;;7.16;100.00
77431;BME280;66498;48.564;19.272;2024-03-02T03:39:14;96869.47;;;7.14;100.00
77431;BME280;66498;48.564;19.272;2024-03-02T03:41:42;96867.66;;;7.15;100.00
77431;BME280;66498;48.564;19.272;2024-03-02T03:44:08;96865.03;;;7.15;100.00
77431;BME280;66498;48.564;19.272;2024-03-02T03:46:33;96871.28;;;7.14;100.00
77431;BME280;66498;48.564;19.272;2024-03-02T03:48:59;96864.88;;;7.09;100.00
77431;BME280;66498;48.564;19.272;2024-03-02T03:51:24;96864.63;;;7.18;100.00
77431;BME280;66498;48.564;19.272;2024-03-02T03:53:49;96857.78;;;7.17;100.00
77431;BME280;66498;48.564;19.272;2024-03-02T03:56:15;96870.56;;;7.25;100.00
77431;BME280;66498;48.564;19.272;2024-03-02T03:58:40;96868.16;;;7.23;100.00
77431;BME280;66498;48.564;19.272;2024-03-02T04:01:05;96865.16;;;7.01;100.00
77431;BME280;66498;48.564;19.272;2024-03-02T04:03:31;96871.59;;;6.99;100.00
77431;BME280;66498;48.564;19.272;2024-03-02T04:05:56;96881.63;;;6.77;100.00
77431;BME280;66498;48.564;19.272;2024-03-02T04:08:22;96880.00;;;6.76;100.00
77431;BME280;66498;48.564;19.272;2024-03-02T04:10:47;96892.00;;;6.83;100.00
77431;BME280;66498;48.564;19.272;2024-03-02T04:13:12;96887.47;;;6.72;100.00
77431;BME280;66498;48.564;19.272;2024-03-02T04:15:38;96885.31;;;6.69;100.00
77431;BME280;66498;48.564;19.272;2024-03-02T04:18:06;96884.44;;;6.75;100.00
77431;BME280;66498;48.564;19.272;2024-03-02T04:20:31;96883.53;;;6.88;100.00
77431;BME280;66498;48.564;19.272;2024-03-02T04:22:56;96887.84;;;7.01;100.00
77431;BME280;66498;48.564;19.272;2024-03-02T04:25:22;96887.06;;;7.00;100.00
77431;BME280;66498;48.564;19.272;2024-03-02T04:27:47;96890.50;;;6.94;100.00
77431;BME280;66498;48.564;19.272;2024-03-02T04:30:12;96884.97;;;7.09;100.00
77431;BME280;66498;48.564;19.272;2024-03-02T04:32:38;96883.16;;;7.09;100.00
77431;BME280;66498;48.564;19.272;2024-03-02T04:35:04;96883.50;;;7.13;100.00
77431;BME280;66498;48.564;19.272;2024-03-02T04:37:33;96886.50;;;7.17;100.00
77431;BME280;66498;48.564;19.272;2024-03-02T04:40:00;96883.44;;;7.01;100.00
77431;BME280;66498;48.564;19.272;2024-03-02T04:42:25;96886.41;;;7.05;100.00
77431;BME280;66498;48.564;19.272;2024-03-02T04:44:51;96888.66;;;7.01;100.00
77431;BME280;66498;48.564;19.272;2024-03-02T04:47:16;96892.53;;;7.17;100.00
77431;BME280;66498;48.564;19.272;2024-03-02T04:49:42;96888.41;;;7.28;100.00
77431;BME280;66498;48.564;19.272;2024-03-02T04:52:08;96887.25;;;7.24;100.00
77431;BME280;66498;48.564;19.272;2024-03-02T04:54:34;96890.38;;;7.32;100.00
77431;BME280;66498;48.564;19.272;2024-03-02T04:57:19;96888.78;;;7.31;100.00
77431;BME280;66498;48.564;19.272;2024-03-02T04:59:44;96885.50;;;7.18;100.00
77431;BME280;66498;48.564;19.272;2024-03-02T05:02:10;96887.31;;;7.17;100.00
77431;BME280;66498;48.564;19.272;2024-03-02T05:04:35;96882.41;;;7.27;100.00
77431;BME280;66498;48.564;19.272;2024-03-02T05:07:00;96877.84;;;7.41;100.00
77431;BME280;66498;48.564;19.272;2024-03-02T05:09:26;96887.31;;;7.54;100.00
77431;BME280;66498;48.564;19.272;2024-03-02T05:11:51;96886.91;;;7.57;100.00
77431;BME280;66498;48.564;19.272;2024-03-02T05:14:36;96892.72;;;7.59;100.00
77431;BME280;66498;48.564;19.272;2024-03-02T05:17:02;96891.69;;;7.60;100.00
77431;BME280;66498;48.564;19.272;2024-03-02T05:19:27;96892.34;;;7.74;100.00
77431;BME280;66498;48.564;19.272;2024-03-02T05:21:53;96896.91;;;7.78;100.00
77431;BME280;66498;48.564;19.272;2024-03-02T05:24:18;96899.09;;;7.81;100.00
77431;BME280;66498;48.564;19.272;2024-03-02T05:26:44;96901.63;;;7.88;100.00
77431;BME280;66498;48.564;19.272;2024-03-02T05:29:10;96899.22;;;7.87;100.00
77431;BME280;66498;48.564;19.272;2024-03-02T05:31:36;96902.28;;;7.83;100.00
77431;BME280;66498;48.564;19.272;2024-03-02T05:34:01;96891.94;;;8.07;100.00
77431;BME280;66498;48.564;19.272;2024-03-02T05:36:27;96887.56;;;8.19;100.00
77431;BME280;66498;48.564;19.272;2024-03-02T05:38:53;96898.81;;;8.20;100.00
77431;BME280;66498;48.564;19.272;2024-03-02T05:41:18;96902.16;;;8.27;100.00
77431;BME280;66498;48.564;19.272;2024-03-02T05:43:43;96909.53;;;8.30;100.00
77431;BME280;66498;48.564;19.272;2024-03-02T05:46:09;96911.38;;;8.29;100.00
77431;BME280;66498;48.564;19.272;2024-03-02T05:48:34;96919.78;;;8.32;100.00
77431;BME280;66498;48.564;19.272;2024-03-02T05:50:59;96933.38;;;8.40;100.00
77431;BME280;66498;48.564;19.272;2024-03-02T05:53:25;96935.75;;;8.42;100.00
77431;BME280;66498;48.564;19.272;2024-03-02T05:55:50;96944.88;;;8.39;100.00
77431;BME280;66498;48.564;19.272;2024-03-02T05:58:20;96953.56;;;8.33;100.00
77431;BME280;66498;48.564;19.272;2024-03-02T06:00:58;96960.38;;;8.34;100.00
77431;BME280;66498;48.564;19.272;2024-03-02T06:03:23;96963.59;;;8.36;100.00
77431;BME280;66498;48.564;19.272;2024-03-02T06:05:48;96967.75;;;8.44;100.00
77431;BME280;66498;48.564;19.272;2024-03-02T06:08:14;96971.50;;;8.48;100.00
77431;BME280;66498;48.564;19.272;2024-03-02T06:10:40;96976.25;;;8.39;100.00
77431;BME280;66498;48.564;19.272;2024-03-02T06:13:05;96983.47;;;8.37;100.00
77431;BME280;66498;48.564;19.272;2024-03-02T06:15:31;96983.72;;;8.36;100.00
77431;BME280;66498;48.564;19.272;2024-03-02T06:17:56;96985.75;;;8.34;100.00
77431;BME280;66498;48.564;19.272;2024-03-02T06:20:21;96988.06;;;8.23;100.00
77431;BME280;66498;48.564;19.272;2024-03-02T06:22:47;96984.44;;;8.24;100.00
77431;BME280;66498;48.564;19.272;2024-03-02T06:25:12;96983.44;;;8.25;100.00
77431;BME280;66498;48.564;19.272;2024-03-02T06:27:38;96981.69;;;8.19;100.00
77431;BME280;66498;48.564;19.272;2024-03-02T06:30:04;96980.94;;;8.30;100.00
77431;BME280;66498;48.564;19.272;2024-03-02T06:32:30;96981.25;;;8.22;100.00
77431;BME280;66498;48.564;19.272;2024-03-02T06:34:55;96979.09;;;8.19;100.00
77431;BME280;66498;48.564;19.272;2024-03-02T06:37:20;96982.91;;;8.17;100.00
77431;BME280;66498;48.564;19.272;2024-03-02T06:39:46;96981.25;;;8.04;100.00
77431;BME280;66498;48.564;19.272;2024-03-02T06:42:11;96975.38;;;8.09;100.00
77431;BME280;66498;48.564;19.272;2024-03-02T06:44:36;96981.63;;;8.07;100.00
77431;BME280;66498;48.564;19.272;2024-03-02T06:47:02;96976.88;;;7.98;100.00
77431;BME280;66498;48.564;19.272;2024-03-02T06:49:27;96978.19;;;8.07;100.00
77431;BME280;66498;48.564;19.272;2024-03-02T06:51:53;96976.25;;;8.02;100.00
77431;BME280;66498;48.564;19.272;2024-03-02T06:54:18;96980.38;;;8.10;100.00
77431;BME280;66498;48.564;19.272;2024-03-02T06:56:43;96977.34;;;8.13;100.00
77431;BME280;66498;48.564;19.272;2024-03-02T06:59:09;96978.28;;;8.19;100.00
77431;BME280;66498;48.564;19.272;2024-03-02T07:01:34;96984.94;;;8.15;100.00
77431;BME280;66498;48.564;19.272;2024-03-02T07:04:00;96984.06;;;8.21;100.00
77431;BME280;66498;48.564;19.272;2024-03-02T07:06:25;96992.72;;;8.21;100.00
77431;BME280;66498;48.564;19.272;2024-03-02T07:08:50;96992.31;;;8.06;100.00
77431;BME280;66498;48.564;19.272;2024-03-02T07:11:16;96994.91;;;8.06;100.00
77431;BME280;66498;48.564;19.272;2024-03-02T07:13:41;96991.88;;;8.09;100.00
77431;BME280;66498;48.564;19.272;2024-03-02T07:16:06;96997.38;;;8.19;100.00
77431;BME280;66498;48.564;19.272;2024-03-02T07:18:53;96995.13;;;8.04;100.00
77431;BME280;66498;48.564;19.272;2024-03-02T07:21:20;96995.41;;;8.15;100.00
77431;BME280;66498;48.564;19.272;2024-03-02T07:23:47;97002.31;;;8.09;100.00
77431;BME280;66498;48.564;19.272;2024-03-02T07:26:13;97003.16;;;8.21;100.00
77431;BME280;66498;48.564;19.272;2024-03-02T07:28:38;96997.59;;;8.18;100.00
77431;BME280;66498;48.564;19.272;2024-03-02T07:31:04;97006.75;;;8.09;100.00
77431;BME280;66498;48.564;19.272;2024-03-02T07:33:30;97001.97;;;8.05;100.00
77431;BME280;66498;48.564;19.272;2024-03-02T07:35:56;97001.06;;;8.12;100.00
77431;BME280;66498;48.564;19.272;2024-03-02T07:38:23;97012.78;;;8.09;100.00
77431;BME280;66498;48.564;19.272;2024-03-02T07:40:49;97010.72;;;8.11;100.00
77431;BME280;66498;48.564;19.272;2024-03-02T07:43:18;97015.91;;;7.99;100.00
77431;BME280;66498;48.564;19.272;2024-03-02T07:45:47;97015.91;;;7.99;100.00
77431;BME280;66498;48.564;19.272;2024-03-02T07:48:13;97002.81;;;7.99;100.00
77431;BME280;66498;48.564;19.272;2024-03-02T07:50:38;97015.22;;;7.86;100.00
77431;BME280;66498;48.564;19.272;2024-03-02T07:53:04;97015.59;;;7.89;100.00
77431;BME280;66498;48.564;19.272;2024-03-02T07:55:30;97016.91;;;7.98;100.00
77431;BME280;66498;48.564;19.272;2024-03-02T07:58:00;97019.91;;;8.02;100.00
77431;BME280;66498;48.564;19.272;2024-03-02T08:00:25;97023.66;;;8.06;100.00
77431;BME280;66498;48.564;19.272;2024-03-02T08:02:51;97016.38;;;8.08;100.00
77431;BME280;66498;48.564;19.272;2024-03-02T08:05:17;97021.06;;;8.06;100.00
77431;BME280;66498;48.564;19.272;2024-03-02T08:07:46;97024.47;;;8.06;100.00
77431;BME280;66498;48.564;19.272;2024-03-02T08:10:13;97030.72;;;8.05;100.00
77431;BME280;66498;48.564;19.272;2024-03-02T08:12:39;97029.69;;;8.06;100.00
77431;BME280;66498;48.564;19.272;2024-03-02T08:15:05;97028.41;;;8.16;100.00
77431;BME280;66498;48.564;19.272;2024-03-02T08:17:32;97027.59;;;8.15;100.00
77431;BME280;66498;48.564;19.272;2024-03-02T08:19:58;97032.16;;;8.20;100.00
77431;BME280;66498;48.564;19.272;2024-03-02T08:22:23;97032.53;;;8.23;100.00
77431;BME280;66498;48.564;19.272;2024-03-02T08:24:52;97031.50;;;8.24;100.00
77431;BME280;66498;48.564;19.272;2024-03-02T08:27:18;97031.22;;;8.14;100.00
77431;BME280;66498;48.564;19.272;2024-03-02T08:29:43;97027.22;;;8.30;100.00
77431;BME280;66498;48.564;19.272;2024-03-02T08:32:09;97026.50;;;8.23;100.00
77431;BME280;66498;48.564;19.272;2024-03-02T08:34:34;97021.50;;;8.40;100.00
77431;BME280;66498;48.564;19.272;2024-03-02T08:37:02;97018.38;;;8.49;100.00
77431;BME280;66498;48.564;19.272;2024-03-02T08:39:27;97029.56;;;8.38;100.00
77431;BME280;66498;48.564;19.272;2024-03-02T08:41:53;97028.97;;;8.36;100.00
77431;BME280;66498;48.564;19.272;2024-03-02T08:44:19;97028.25;;;8.47;100.00
77431;BME280;66498;48.564;19.272;2024-03-02T08:46:44;97028.50;;;8.46;100.00
77431;BME280;66498;48.564;19.272;2024-03-02T08:49:10;97033.72;;;8.46;100.00
77431;BME280;66498;48.564;19.272;2024-03-02T08:51:36;97029.13;;;8.41;100.00
77431;BME280;66498;48.564;19.272;2024-03-02T08:54:01;97030.88;;;8.29;100.00
77431;BME280;66498;48.564;19.272;2024-03-02T08:56:29;97030.63;;;8.49;100.00
77431;BME280;66498;48.564;19.272;2024-03-02T08:58:55;97031.59;;;8.55;100.00
77431;BME280;66498;48.564;19.272;2024-03-02T09:01:24;97032.88;;;8.64;100.00
77431;BME280;66498;48.564;19.272;2024-03-02T09:04:16;97030.91;;;8.59;100.00
77431;BME280;66498;48.564;19.272;2024-03-02T09:06:46;97032.53;;;8.60;100.00
77431;BME280;66498;48.564;19.272;2024-03-02T09:09:14;97032.91;;;8.45;100.00
77431;BME280;66498;48.564;19.272;2024-03-02T09:11:40;97035.88;;;8.49;100.00
77431;BME280;66498;48.564;19.272;2024-03-02T09:14:07;97036.03;;;8.54;100.00
77431;BME280;66498;48.564;19.272;2024-03-02T09:17:14;97032.38;;;8.55;100.00
77431;BME280;66498;48.564;19.272;2024-03-02T09:20:12;97032.25;;;8.50;100.00
77431;BME280;66498;48.564;19.272;2024-03-02T09:22:52;97034.91;;;8.62;100.00
77431;BME280;66498;48.564;19.272;2024-03-02T09:25:41;97032.25;;;8.50;100.00
77431;BME280;66498;48.564;19.272;2024-03-02T09:28:34;97033.91;;;8.44;100.00
77431;BME280;66498;48.564;19.272;2024-03-02T09:31:41;97040.38;;;8.42;100.00
77431;BME280;66498;48.564;19.272;2024-03-02T09:34:29;97034.00;;;8.56;100.00
77431;BME280;66498;48.564;19.272;2024-03-02T09:37:15;97036.63;;;8.56;100.00
77431;BME280;66498;48.564;19.272;2024-03-02T09:41:03;97040.06;;;8.68;100.00
77431;BME280;66498;48.564;19.272;2024-03-02T09:43:59;97033.25;;;8.67;100.00
77431;BME280;66498;48.564;19.272;2024-03-02T09:50:12;97035.97;;;8.72;100.00
77431;BME280;66498;48.564;19.272;2024-03-02T09:52:42;97041.28;;;8.84;100.00
77431;BME280;66498;48.564;19.272;2024-03-02T09:55:13;97040.16;;;8.92;100.00
77431;BME280;66498;48.564;19.272;2024-03-02T09:57:43;97029.00;;;8.96;100.00
77431;BME280;66498;48.564;19.272;2024-03-02T10:00:19;97026.22;;;9.10;100.00
77431;BME280;66498;48.564;19.272;2024-03-02T10:02:48;97023.81;;;9.08;100.00
77431;BME280;66498;48.564;19.272;2024-03-02T10:05:26;97026.25;;;9.33;100.00
77431;BME280;66498;48.564;19.272;2024-03-02T10:08:06;97022.16;;;9.37;100.00
77431;BME280;66498;48.564;19.272;2024-03-02T10:10:47;97016.50;;;9.52;100.00
77431;BME280;66498;48.564;19.272;2024-03-02T10:13:41;97013.19;;;9.57;100.00
77431;BME280;66498;48.564;19.272;2024-03-02T10:16:27;97023.25;;;9.71;100.00
77431;BME280;66498;48.564;19.272;2024-03-02T10:18:57;97022.22;;;9.73;100.00
77431;BME280;66498;48.564;19.272;2024-03-02T10:21:32;97018.09;;;9.53;100.00
77431;BME280;66498;48.564;19.272;2024-03-02T10:24:08;97021.16;;;9.74;100.00
77431;BME280;66498;48.564;19.272;2024-03-02T10:26:40;97021.06;;;9.68;100.00
77431;BME280;66498;48.564;19.272;2024-03-02T10:29:11;97017.28;;;9.64;100.00
77431;BME280;66498;48.564;19.272;2024-03-02T10:31:47;97023.13;;;9.55;100.00
77431;BME280;66498;48.564;19.272;2024-03-02T10:34:15;97021.63;;;9.59;100.00
77431;BME280;66498;48.564;19.272;2024-03-02T10:36:54;97018.31;;;9.63;100.00
77431;BME280;66498;48.564;19.272;2024-03-02T10:39:42;97015.03;;;9.44;100.00
77431;BME280;66498;48.564;19.272;2024-03-02T10:42:14;97016.16;;;9.60;100.00
77431;BME280;66498;48.564;19.272;2024-03-02T10:44:49;97018.31;;;9.63;100.00
77431;BME280;66498;48.564;19.272;2024-03-02T10:47:37;97017.19;;;9.59;100.00
77431;BME280;66498;48.564;19.272;2024-03-02T10:50:40;97008.06;;;9.50;100.00
77431;BME280;66498;48.564;19.272;2024-03-02T10:53:36;97010.34;;;9.35;100.00
77431;BME280;66498;48.564;19.272;2024-03-02T10:56:21;97011.91;;;9.47;100.00
77431;BME280;66498;48.564;19.272;2024-03-02T10:59:56;97007.16;;;9.56;100.00
77431;BME280;66498;48.564;19.272;2024-03-02T11:02:56;97004.28;;;9.58;100.00
77431;BME280;66498;48.564;19.272;2024-03-02T11:05:29;97007.50;;;9.71;100.00
77431;BME280;66498;48.564;19.272;2024-03-02T11:08:27;97003.28;;;9.82;100.00
77431;BME280;66498;48.564;19.272;2024-03-02T11:11:28;97004.88;;;9.83;100.00
77431;BME280;66498;48.564;19.272;2024-03-02T11:13:58;96997.34;;;9.87;100.00
77431;BME280;66498;48.564;19.272;2024-03-02T11:16:47;96998.72;;;9.89;100.00
77431;BME280;66498;48.564;19.272;2024-03-02T11:19:28;96994.25;;;10.02;100.00
77431;BME280;66498;48.564;19.272;2024-03-02T11:22:27;96990.28;;;9.87;100.00
77431;BME280;66498;48.564;19.272;2024-03-02T11:25:03;96988.78;;;10.03;100.00
77431;BME280;66498;48.564;19.272;2024-03-02T11:33:08;96986.50;;;10.07;100.00
77431;BME280;66498;48.564;19.272;2024-03-02T11:36:00;96980.59;;;10.00;100.00
77431;BME280;66498;48.564;19.272;2024-03-02T11:39:43;96982.75;;;10.03;100.00
77431;BME280;66498;48.564;19.272;2024-03-02T11:43:23;96984.13;;;9.93;100.00
77431;BME280;66498;48.564;19.272;2024-03-02T11:46:41;96980.91;;;9.91;100.00
77431;BME280;66498;48.564;19.272;2024-03-02T11:50:04;96974.22;;;9.95;100.00
77431;BME280;66498;48.564;19.272;2024-03-02T11:53:25;96970.56;;;9.73;100.00
77431;BME280;66498;48.564;19.272;2024-03-02T11:56:11;96980.72;;;9.58;100.00
77431;BME280;66498;48.564;19.272;2024-03-02T11:58:53;96970.59;;;9.61;100.00
77431;BME280;66498;48.564;19.272;2024-03-02T12:02:01;96972.75;;;9.53;100.00
77431;BME280;66498;48.564;19.272;2024-03-02T12:05:16;96971.38;;;9.50;100.00
77431;BME280;66498;48.564;19.272;2024-03-02T12:08:07;96967.84;;;9.56;100.00
77431;BME280;66498;48.564;19.272;2024-03-02T12:10:39;96968.78;;;9.62;100.00
77431;BME280;66498;48.564;19.272;2024-03-02T12:13:58;96967.28;;;9.54;100.00
77431;BME280;66498;48.564;19.272;2024-03-02T12:16:45;96968.88;;;9.55;100.00
77431;BME280;66498;48.564;19.272;2024-03-02T12:23:28;96970.00;;;9.47;100.00
77431;BME280;66498;48.564;19.272;2024-03-02T12:27:20;96973.91;;;9.45;100.00
77431;BME280;66498;48.564;19.272;2024-03-02T12:30:40;96965.78;;;9.46;100.00
77431;BME280;66498;48.564;19.272;2024-03-02T12:33:46;96969.78;;;9.61;100.00
77431;BME280;66498;48.564;19.272;2024-03-02T12:36:38;96963.28;;;9.63;100.00
77431;BME280;66498;48.564;19.272;2024-03-02T12:39:04;96969.31;;;9.64;100.00
77431;BME280;66498;48.564;19.272;2024-03-02T12:41:30;96964.66;;;9.54;100.00
77431;BME280;66498;48.564;19.272;2024-03-02T12:43:55;96966.94;;;9.51;100.00
77431;BME280;66498;48.564;19.272;2024-03-02T12:46:21;96964.22;;;9.69;100.00
77431;BME280;66498;48.564;19.272;2024-03-02T12:48:47;96967.16;;;9.73;100.00
77431;BME280;66498;48.564;19.272;2024-03-02T12:51:12;96965.00;;;9.58;100.00
77431;BME280;66498;48.564;19.272;2024-03-02T12:53:37;96965.00;;;9.58;100.00
77431;BME280;66498;48.564;19.272;2024-03-02T12:56:03;96962.97;;;9.48;100.00
77431;BME280;66498;48.564;19.272;2024-03-02T12:58:29;96960.31;;;9.60;100.00
77431;BME280;66498;48.564;19.272;2024-03-02T13:01:08;96964.66;;;9.54;100.00
77431;BME280;66498;48.564;19.272;2024-03-02T13:03:38;96962.16;;;9.59;100.00
77431;BME280;66498;48.564;19.272;2024-03-02T13:06:07;96952.81;;;9.63;100.00
77431;BME280;66498;48.564;19.272;2024-03-02T13:08:33;96958.84;;;9.76;100.00
77431;BME280;66498;48.564;19.272;2024-03-02T13:10:59;96956.34;;;9.69;100.00
77431;BME280;66498;48.564;19.272;2024-03-02T13:13:24;96952.22;;;9.73;100.00
77431;BME280;66498;48.564;19.272;2024-03-02T13:15:55;96952.00;;;9.75;100.00
77431;BME280;66498;48.564;19.272;2024-03-02T13:18:21;96950.97;;;9.76;100.00
77431;BME280;66498;48.564;19.272;2024-03-02T13:20:46;96949.03;;;9.83;100.00
77431;BME280;66498;48.564;19.272;2024-03-02T13:23:12;96945.41;;;9.72;100.00
77431;BME280;66498;48.564;19.272;2024-03-02T13:25:38;96952.31;;;9.90;100.00
77431;BME280;66498;48.564;19.272;2024-03-02T13:28:03;96949.63;;;9.73;100.00
77431;BME280;66498;48.564;19.272;2024-03-02T13:30:29;96953.97;;;9.56;100.00